Terminal Aerodrome Forecast
Issued by NWS

Home | Current Version | Previous Version | Text Only | Print | Product List | Glossary On
Versions: 1 2 3 4 5 6 7 8 9 10 11 12 13 14 15
000
FTUS45 KPSR 272333
TAFIPL
TAF
KIPL 272333Z 2800/2824 28018G26KT P6SM SKC
     FM280800 29012KT P6SM SKC
     FM281800 34015G24KT P6SM SKC=

USA.gov is the U.S. government's official web portal to all federal, state and local government web resources and services.